El Prat de Llobregat, Spain
Current Conditions -  °F | °C
As of 9:30 PM on Saturday 25 Oct 2014 (Local Time) from LEBL Reporting Station
Few Clouds Few Clouds  
Wind Chill: 68°   Ceiling: Unl
Heat Index: 68°   Visibility: 6mi
Dew Point: 66°   Wind: 6mph
Humidity: 94%   Direction: 50°NE
Pressure: 30.12"   Gusts: NA
Location:  41.33°N, 2.09°E
Report Text: LEBL 251930Z 05005KT 350V070 9999 FEW020 20/19 Q1020 NOSIG
Loading
Personal Weather Stations






























Interactive Weather Map
Tropical Storm Tracking
New forecast layout! Learn more

10-Day Weather Forecast

Advertisements
Track Severe Weather on mobile